Date,TemperatureHighF,TemperatureAvgF,TemperatureLowF,DewpointHighF,DewpointAvgF,DewpointLowF,HumidityHigh,HumidityAvg,HumidityLow,PressureMaxIn,PressureMinIn,WindSpeedMaxMPH,WindSpeedAvgMPH,GustSpeedMaxMPH,PrecipitationSumIn
2013-1-1,43.7,40.1,32.0,43.4,39.9,31.6,99,99,99,29.36,29.15,9,3,12,0.38
2013-1-2,36.5,30.8,25.2,31.6,28.2,24.9,99,90,72,29.43,29.32,5,2,9,0.00
2013-1-3,50.2,33.5,20.3,37.8,29.3,20.1,99,87,55,29.58,29.40,5,1,8,0.00
2013-1-4,53.6,34.6,21.4,41.5,30.3,21.1,99,87,54,29.66,29.53,49,1,49,1.42
2013-1-5,47.3,37.5,25.9,40.9,35.3,25.5,99,92,73,29.56,29.40,4,1,8,0.00
2013-1-6,54.5,39.9,27.0,45.1,37.0,26.5,99,91,62,29.54,29.37,7,2,9,0.00
2013-1-7,61.9,35.7,21.6,39.5,30.1,21.3,99,84,43,29.58,29.36,4,1,8,0.00
2013-1-8,61.2,46.0,27.9,51.0,40.6,27.6,99,83,61,29.43,29.30,7,2,9,0.00
2013-1-9,57.2,54.5,52.0,56.7,54.1,51.0,99,98,87,29.50,29.35,4,2,8,0.78
2013-1-10,68.2,62.2,55.4,67.9,61.9,55.1,99,99,99,29.42,29.03,14,5,23,0.99
2013-1-11,72.7,62.1,53.8,63.6,59.3,53.5,99,92,66,29.20,29.07,9,3,13,0.06
2013-1-12,72.3,68.6,64.0,72.0,68.3,63.6,99,99,99,29.11,28.88,9,4,14,0.20
2013-1-13,70.3,46.5,36.1,69.9,46.2,35.9,99,99,99,29.33,28.88,9,5,17,3.19
2013-1-14,30.0,28.4,26.6,29.6,28.1,26.4,99,99,96,29.56,29.39,10,4,15,0.00
2013-1-15,31.6,29.8,25.9,31.4,29.6,25.6,99,99,99,29.41,29.19,0,0,0,0.00
2013-1-16,33.6,31.8,29.8,33.2,31.6,29.6,99,99,99,29.34,29.19,0,0,0,0.00
2013-1-17,50.4,38.3,31.6,43.7,36.7,31.4,99,95,75,29.63,29.26,9,2,13,0.04
2013-1-18,61.2,38.0,22.6,41.9,32.5,22.4,99,84,45,29.72,29.50,4,1,6,0.00
2013-1-19,62.2,46.7,33.8,42.9,38.7,33.2,99,77,47,29.50,29.32,8,3,12,0.00
2013-1-20,66.6,45.9,30.4,48.8,37.9,30.1,99,78,44,29.42,29.28,6,2,9,0.00
2013-1-21,48.4,35.3,23.0,32.9,25.7,21.3,96,70,44,29.50,29.31,9,3,13,0.00
2013-1-22,45.7,32.6,21.4,26.8,23.4,21.1,99,72,47,29.58,29.46,4,1,8,0.00
2013-1-23,58.8,39.1,24.3,44.5,34.2,21.4,99,84,59,29.50,29.31,4,1,8,0.00
2013-1-24,46.6,40.4,36.1,43.4,30.5,23.6,99,69,54,29.58,29.35,8,3,13,0.00
2013-1-25,52.5,40.3,30.7,52.2,37.3,28.3,99,90,59,29.41,29.18,7,2,11,0.12
2013-1-26,61.0,43.7,28.8,46.6,37.1,28.5,99,81,49,29.48,29.39,4,1,7,0.00
2013-1-27,69.4,56.2,46.6,60.2,51.7,40.0,99,85,70,29.41,29.27,8,4,12,0.00
2013-1-28,76.3,64.0,57.7,70.8,63.0,57.5,99,97,82,29.33,29.19,9,5,14,0.02
2013-1-29,79.2,68.7,59.4,71.3,66.3,59.1,99,93,78,29.20,28.61,17,6,24,0.11
2013-1-30,70.2,48.6,33.6,69.5,45.7,30.3,99,90,73,29.19,28.65,13,6,23,1.03
2013-1-31,58.3,41.5,26.8,41.2,33.9,26.1,99,77,50,29.49,29.18,10,4,15,0.00
2013-2-1,45.0,30.7,21.9,28.4,17.7,11.7,78,60,36,29.69,29.45,8,3,12,11.34
2013-2-2,56.7,37.4,24.6,44.2,32.5,19.4,99,84,55,29.46,29.28,6,2,11,0.01
2013-2-3,57.4,43.9,30.9,41.5,35.6,30.0,99,76,48,29.35,29.26,10,3,15,0.00
2013-2-4,60.3,45.9,33.4,48.5,40.3,32.9,99,83,49,29.26,29.06,8,2,15,0.06
2013-2-5,68.4,50.8,37.0,58.4,47.7,36.8,99,91,60,29.21,29.07,5,1,8,0.00
2013-2-6,67.1,50.9,34.7,54.9,46.4,34.5,99,86,65,29.35,29.19,5,1,8,0.00
2013-2-7,72.9,59.5,47.1,62.2,55.3,44.7,99,87,69,29.19,29.01,6,2,10,0.26
2013-2-8,57.4,44.8,30.7,57.1,43.8,30.5,99,96,85,29.46,29.03,11,5,16,0.27
2013-2-9,56.5,42.9,26.6,45.4,38.6,26.4,99,86,65,29.47,29.19,6,2,10,0.00
2013-2-10,61.0,55.7,51.1,60.7,53.1,43.3,99,92,70,29.20,28.88,10,5,15,0.85
2013-2-11,68.5,51.3,45.0,57.5,42.4,36.5,99,74,42,29.36,29.11,5,2,8,0.00
2013-2-12,54.0,45.8,-5.3,46.2,42.7,37.1,99,89,62,29.31,28.92,6,2,9,12.13
2013-2-13,45.9,41.3,35.6,44.8,41.0,35.3,99,99,96,29.19,28.91,7,3,11,0.07
2013-2-14,66.6,46.9,10.9,50.1,40.4,-22.0,99,82,22,29.23,29.14,52,3,102,0.00
2013-2-15,59.4,44.9,32.7,45.6,37.6,30.9,99,79,46,29.35,29.20,8,3,13,0.00
2013-2-16,43.9,34.2,25.0,33.5,25.4,20.7,92,71,51,29.42,29.34,8,3,15,0.00
2013-2-17,60.4,43.6,28.8,37.9,31.4,24.6,87,65,43,29.42,29.23,8,4,11,0.00
2013-2-18,59.2,51.4,42.1,55.9,47.9,36.2,99,88,67,29.25,28.91,15,6,21,1.00
2013-2-19,52.2,41.2,27.1,46.7,34.0,26.9,99,78,46,29.43,29.11,9,4,15,0.00
2013-2-20,41.9,33.4,27.0,30.8,25.2,20.5,99,73,52,29.50,29.32,7,2,11,0.00
2013-2-21,47.3,39.7,32.9,47.0,36.5,28.6,99,89,61,29.34,28.89,8,3,14,0.69
2013-2-22,53.2,42.7,36.9,49.5,41.8,36.6,99,97,82,29.24,29.03,5,2,8,0.00
2013-2-23,57.4,40.5,29.5,41.2,35.2,29.2,99,84,51,29.21,29.09,6,2,9,0.00
2013-2-24,68.4,44.4,26.2,45.0,36.0,26.0,99,77,43,29.25,29.05,6,2,10,0.00
2013-2-25,62.6,52.5,41.4,57.8,45.9,32.7,99,79,59,29.06,28.46,10,5,21,0.43
2013-2-26,53.8,45.0,41.4,53.5,43.4,38.8,99,94,84,28.98,28.49,11,6,19,0.00
2013-2-27,48.0,42.8,39.9,41.7,38.5,34.7,92,85,73,29.13,28.97,8,4,12,0.00
2013-2-28,44.2,39.2,33.4,35.2,33.1,31.3,97,79,68,29.16,28.78,8,4,13,0.00
2013-3-1,38.3,35.8,32.9,34.8,32.8,30.1,98,89,80,28.93,28.85,6,4,11,0.00
2013-3-2,36.5,32.9,27.9,33.5,29.9,24.8,99,89,74,29.02,28.90,7,4,12,0.00
2013-3-3,55.8,35.9,18.5,33.2,27.0,18.3,99,74,42,29.01,28.83,5,1,8,0.00
2013-3-4,71.4,54.5,34.5,54.6,40.6,28.9,85,62,41,28.85,28.53,12,5,19,0.00
2013-3-5,63.7,50.7,38.1,62.8,44.8,27.4,99,82,54,28.95,28.54,13,7,20,0.19
2013-3-6,51.8,39.2,29.8,36.1,30.5,26.4,99,72,54,29.12,28.95,9,4,15,0.00
2013-3-7,62.6,42.0,29.1,42.4,35.2,28.9,99,80,46,29.16,29.04,4,2,8,0.00
2013-3-8,74.1,47.7,29.8,43.7,36.6,29.6,99,71,32,29.17,28.94,4,1,8,0.00
2013-3-9,74.1,60.9,46.2,47.9,41.8,35.2,76,52,38,28.95,28.70,9,4,15,0.00
2013-3-10,66.2,58.4,52.2,64.1,55.2,48.1,99,90,59,28.74,28.52,12,5,17,1.00
2013-3-11,52.7,42.3,31.6,52.4,39.7,31.4,99,91,68,28.82,28.61,8,4,13,0.00
2013-3-12,60.4,42.4,26.4,43.3,33.9,26.2,99,77,41,28.98,28.80,6,2,10,0.00
2013-3-13,54.7,43.7,30.2,38.7,32.6,28.8,98,67,47,29.18,28.98,9,4,15,0.00
2013-3-14,68.9,49.7,26.1,43.1,37.1,25.6,99,67,39,29.58,29.16,6,2,11,0.00
2013-3-15,80.6,65.9,43.7,63.5,54.2,40.6,97,68,55,29.33,29.03,10,5,17,0.00
2013-3-16,80.6,67.0,54.7,65.7,60.2,53.9,99,80,61,29.08,28.96,11,5,19,0.00
2013-3-17,78.3,63.3,52.3,66.9,59.2,52.1,99,88,67,29.06,28.83,6,2,10,0.08
2013-3-18,68.4,57.2,41.5,67.7,56.9,40.9,99,99,95,29.19,28.81,9,4,15,0.70
2013-3-19,64.6,48.0,32.5,46.2,37.0,29.8,99,71,38,29.34,29.18,6,2,10,0.00
2013-3-20,57.6,46.9,32.7,43.1,32.1,16.8,99,60,36,29.38,29.23,9,4,16,0.00
2013-3-21,54.1,40.9,26.6,36.8,24.9,17.7,99,57,33,29.27,29.08,5,2,8,0.02
2013-3-22,48.6,42.7,34.3,48.1,42.5,34.1,99,99,99,29.14,29.01,5,2,9,0.44
2013-3-23,57.4,50.3,46.2,57.1,50.0,46.0,99,99,99,29.06,28.81,5,2,8,0.52
2013-3-24,53.1,46.1,36.9,51.5,43.7,30.6,99,91,78,29.11,28.69,13,6,23,0.08
2013-3-25,41.5,37.0,33.3,32.1,29.2,26.5,82,73,64,29.40,29.11,11,7,21,0.00
2013-3-26,53.1,38.8,28.0,35.9,30.7,26.8,99,75,50,29.52,29.38,8,4,13,0.00
2013-3-27,66.0,42.7,24.1,42.0,33.7,23.8,99,76,42,29.57,29.43,5,1,8,0.00
2013-3-28,76.5,52.7,30.7,49.9,41.3,30.5,99,72,38,29.50,29.35,4,1,8,0.00
2013-3-29,67.5,55.1,45.7,57.6,50.3,42.1,99,86,50,29.41,29.30,6,2,11,0.13
2013-3-30,60.1,55.1,51.3,59.6,54.8,51.0,99,99,99,29.33,29.07,3,1,6,0.43
2013-3-31,68.0,58.4,44.8,66.1,58.0,44.5,99,99,91,29.11,29.01,8,2,11,0.02
2013-4-1,74.8,56.3,39.2,59.5,50.0,38.9,99,82,54,29.28,29.08,7,2,11,0.00
2013-4-2,53.6,47.6,40.3,47.1,39.2,34.4,99,75,52,29.40,29.24,7,4,11,0.04
2013-4-3,48.9,45.5,41.0,44.6,38.3,31.7,99,77,56,29.37,29.25,5,3,10,0.07
2013-4-4,48.4,45.4,41.5,47.9,44.3,38.2,99,96,69,29.27,29.11,4,2,8,0.30
2013-4-5,76.1,55.4,42.8,55.4,47.0,42.5,99,79,39,29.32,29.19,5,2,11,0.00
2013-4-6,80.2,59.7,41.0,55.7,48.2,40.7,99,72,37,29.26,29.07,10,3,15,0.00
2013-4-7,74.8,63.8,52.7,65.2,58.5,50.0,99,84,62,29.20,29.06,9,3,12,0.00
2013-4-8,84.0,70.0,60.4,69.4,64.8,58.9,99,85,61,29.15,29.01,8,4,14,0.00
2013-4-9,86.4,74.8,64.8,77.7,72.1,64.5,99,92,73,29.15,29.01,10,4,16,0.00
2013-4-10,88.3,78.1,71.2,78.8,73.8,70.9,99,88,68,29.11,28.83,10,5,18,0.00
2013-4-11,75.4,53.0,41.7,74.0,52.7,41.5,99,99,95,28.97,28.82,10,2,15,2.48
2013-4-12,71.1,53.6,36.7,58.2,47.9,36.4,99,84,55,29.15,28.96,7,2,12,0.01
2013-4-13,81.1,59.8,42.8,58.2,50.9,42.5,99,77,44,29.25,29.06,4,1,7,0.00
2013-4-14,73.6,62.3,51.8,65.5,58.7,51.5,99,89,72,29.08,28.90,9,4,16,0.00
2013-4-15,87.3,69.9,54.7,74.9,66.0,54.4,99,89,65,29.09,28.97,7,4,11,0.00
2013-4-16,90.9,76.9,68.7,82.5,75.1,68.4,99,95,75,29.20,29.06,8,3,12,0.00
2013-4-17,90.9,77.7,66.9,82.5,75.2,66.6,99,93,72,29.23,29.00,8,3,13,0.00
2013-4-18,82.4,70.6,46.2,75.8,68.0,45.8,99,92,72,29.02,28.73,10,6,20,1.56
2013-4-19,58.1,47.8,40.1,45.8,41.2,37.4,99,80,56,29.30,28.98,8,4,15,0.00
2013-4-20,75.7,54.8,34.9,56.8,44.5,34.6,99,74,41,29.41,29.29,5,1,10,0.00
2013-4-21,77.0,59.4,44.4,51.3,46.5,41.8,96,67,38,29.49,29.31,7,2,14,0.22
2013-4-22,82.4,61.7,41.9,62.5,53.7,41.6,99,79,50,29.36,29.16,6,2,12,0.00
2013-4-23,79.5,66.8,56.5,71.8,64.8,56.2,99,94,76,29.22,29.04,8,3,13,0.00
2013-4-24,69.6,51.3,39.2,69.3,49.5,38.9,99,94,72,29.44,29.01,8,4,15,0.87
2013-4-25,76.5,53.6,33.4,54.8,45.4,33.2,99,79,43,29.54,29.42,4,1,8,0.00
2013-4-26,74.3,57.2,45.3,59.8,52.4,45.1,99,86,49,29.56,29.34,8,2,14,0.07
2013-4-27,77.4,64.6,54.7,77.1,64.2,54.4,99,99,94,29.37,29.01,6,2,11,0.11
2013-4-28,73.0,63.0,51.1,68.6,60.9,50.6,99,94,74,29.13,29.07,5,2,9,0.00
2013-4-29,87.4,65.7,45.1,72.0,60.0,44.9,99,85,55,29.17,29.01,3,1,5,0.00
2013-4-30,89.6,70.2,52.2,71.9,62.9,51.9,99,81,53,29.11,29.03,6,2,10,0.00
2013-5-1,82.2,70.1,60.4,78.5,68.1,60.0,99,94,79,29.20,29.07,7,2,12,0.01
2013-5-2,69.8,64.6,62.1,69.5,64.4,61.8,99,99,99,29.25,29.14,3,1,5,1.03
2013-5-3,63.5,48.8,36.3,63.2,48.5,36.1,99,99,99,29.16,29.03,6,2,10,1.62
2013-5-4,62.8,46.2,32.9,52.9,43.6,32.7,99,92,67,29.12,29.03,7,1,11,0.08
2013-5-5,63.5,52.0,45.0,58.5,50.0,44.7,99,94,70,29.09,29.01,7,3,15,0.67
2013-5-6,68.5,58.9,53.2,64.8,58.3,53.0,99,98,87,29.11,29.01,6,2,10,0.00
2013-5-7,79.0,67.0,50.0,69.9,62.1,49.7,99,86,67,29.16,29.08,5,1,8,0.00
2013-5-8,88.0,69.4,51.3,73.6,63.5,50.8,99,84,57,29.23,29.14,4,1,7,0.00
2013-5-9,85.1,71.3,58.1,75.6,67.8,57.8,99,90,69,29.23,29.09,8,2,19,0.00
2013-5-10,78.3,68.5,63.1,78.0,68.2,62.9,99,99,96,29.12,29.00,9,2,12,1.12
2013-5-11,77.4,67.1,57.9,68.4,63.5,57.6,99,89,64,29.20,29.06,6,3,11,0.00
2013-5-12,73.8,60.6,45.9,61.8,47.8,41.3,99,67,38,29.38,29.20,7,3,11,0.00
2013-5-13,81.5,62.9,42.6,63.2,54.2,42.4,99,77,49,29.43,29.26,4,1,8,0.00
2013-5-14,90.9,73.8,57.9,74.8,64.2,57.4,99,75,51,29.29,29.16,7,3,14,0.00
2013-5-15,90.3,75.9,62.6,71.4,64.9,60.4,95,71,51,29.28,29.10,8,3,15,0.00
2013-5-16,81.0,72.0,64.2,76.3,69.2,63.9,99,91,73,29.15,29.04,4,2,8,0.01
2013-5-17,84.4,72.0,65.7,81.1,70.9,65.4,99,97,82,29.09,29.02,5,2,10,0.28
2013-5-18,90.1,76.8,64.8,87.5,76.2,64.5,99,98,89,29.14,29.05,4,1,7,0.00
2013-5-19,93.2,81.1,71.8,82.2,77.4,71.5,99,90,67,29.12,29.02,6,3,11,0.00
2013-5-20,91.8,81.6,72.7,85.3,79.0,72.4,99,93,77,29.11,28.98,7,3,12,0.00
2013-5-21,81.3,71.5,63.7,80.7,71.2,63.2,99,99,95,29.13,28.91,11,2,17,3.58
2013-5-22,85.5,70.7,63.0,78.0,69.0,-24.6,99,95,73,29.06,28.91,7,2,10,0.07
2013-5-23,86.4,74.5,-17.5,79.9,69.7,60.7,99,84,65,29.26,29.05,6,2,11,12.28
2013-5-24,81.3,67.2,55.2,66.1,60.6,-11.0,99,82,54,29.44,29.26,8,4,12,0.00
2013-5-25,88.5,69.2,49.6,71.1,62.1,49.4,99,82,51,29.46,29.29,5,1,11,0.00
2013-5-26,92.5,73.3,55.9,73.1,65.6,55.7,99,80,50,29.36,29.23,4,1,9,0.00
2013-5-27,91.8,76.0,63.0,80.1,71.3,62.3,99,87,56,29.26,29.11,6,2,15,0.00
2013-5-28,94.1,80.3,71.1,81.4,73.6,68.5,99,83,55,29.20,29.10,5,3,11,0.00
2013-5-29,92.7,79.3,63.3,81.5,74.6,63.0,99,87,60,29.19,29.06,6,2,11,0.00
2013-5-30,90.0,78.0,72.5,84.3,76.6,72.2,99,96,79,29.17,29.05,9,3,16,0.00
2013-5-31,88.7,79.1,69.8,87.0,78.3,69.5,99,97,88,29.14,28.98,6,2,11,0.41
2013-6-1,86.5,74.3,66.9,85.5,74.0,66.6,99,99,88,29.15,28.95,8,3,13,0.32
2013-6-2,85.3,73.8,67.5,79.6,71.7,67.2,99,94,76,29.12,29.04,6,2,9,0.00
2013-6-3,87.4,72.5,60.4,76.5,68.6,60.0,99,89,65,29.16,29.06,5,2,10,0.00
2013-6-4,95.2,76.1,60.6,79.7,71.2,60.3,99,87,62,29.16,29.05,4,1,8,0.00
2013-6-5,93.2,78.7,66.9,86.0,76.6,66.6,99,94,74,29.09,28.93,7,2,11,0.26
2013-6-6,88.3,76.6,67.8,80.6,74.0,67.2,99,92,74,28.99,28.89,6,2,10,0.00
2013-6-7,86.9,75.3,62.2,75.9,69.5,62.0,99,84,56,29.04,28.92,6,3,9,0.00
2013-6-8,92.3,74.8,57.2,77.0,66.5,56.9,99,79,50,29.14,29.02,5,1,9,0.00
2013-6-9,92.8,76.3,64.9,83.7,74.0,64.3,99,94,73,29.13,28.94,5,2,11,0.44
2013-6-10,72.1,72.1,72.1,71.8,71.8,71.8,99,99,99,28.98,28.98,4,4,4,0.44
2013-6-11,72.1,72.1,72.1,71.8,71.8,71.8,99,99,99,28.98,28.98,4,4,4,0.44
2013-6-12,72.1,72.1,72.1,71.8,71.8,71.8,99,99,99,28.98,28.98,4,4,4,0.44
2013-6-13,72.1,72.1,72.1,71.8,71.8,71.8,99,99,99,28.98,28.98,4,4,4,0.44
2013-6-14,72.1,72.1,72.1,71.8,71.8,71.8,99,99,99,28.98,28.98,4,4,4,0.44
2013-6-15,97.3,79.9,71.6,81.2,74.7,71.3,99,87,56,29.19,28.98,4,2,7,0.13
2013-6-16,97.7,80.4,69.1,87.4,77.7,68.8,99,92,70,29.22,29.11,4,1,8,0.00
2013-6-17,86.0,77.4,72.5,85.5,77.1,72.2,99,99,99,29.16,29.01,7,1,11,0.47
2013-6-18,90.3,78.2,69.3,82.3,76.1,69.0,99,94,74,29.16,29.04,6,2,8,0.00
2013-6-19,97.9,78.9,65.8,86.0,75.3,65.5,99,90,61,29.21,29.11,10,1,13,0.00
2013-6-20,99.3,82.6,66.7,85.1,77.0,66.4,99,85,58,29.30,29.21,4,1,5,0.00
2013-6-21,97.7,83.9,70.7,86.3,79.3,70.4,99,88,66,29.34,29.23,4,2,10,0.00
2013-6-22,96.4,82.9,69.8,86.1,78.6,69.5,99,88,67,29.32,29.18,5,2,9,0.00
2013-6-23,98.4,83.2,70.0,84.9,78.3,69.7,99,87,62,29.28,29.18,4,1,8,0.00
2013-6-24,99.0,84.7,72.5,89.3,81.1,72.2,99,90,68,29.31,29.18,5,2,8,0.00
2013-6-25,97.0,84.6,73.6,87.4,80.7,73.3,99,90,65,29.26,29.11,6,2,9,0.00
2013-6-26,97.9,85.4,73.6,86.8,80.6,73.3,99,87,61,29.18,29.03,7,2,12,0.00
2013-6-27,102.0,85.8,72.9,92.1,82.9,72.6,99,92,73,29.11,28.98,10,2,17,0.19
2013-6-28,93.6,79.2,71.6,87.9,77.0,71.3,99,94,70,29.10,28.88,13,2,18,0.73
2013-6-29,92.1,80.2,65.7,79.8,72.7,65.4,99,81,55,28.94,28.86,6,2,10,0.00
2013-6-30,84.0,74.3,63.9,76.5,71.4,63.4,99,91,75,29.00,28.89,6,3,11,0.00
2013-7-1,85.6,74.0,67.6,79.3,71.5,67.3,99,93,75,29.11,28.98,8,3,12,0.01
2013-7-2,88.9,75.3,61.5,76.2,70.0,61.2,99,86,61,29.21,29.08,5,2,9,0.00
2013-7-3,90.3,74.7,61.5,78.6,70.2,61.1,99,88,62,29.27,29.18,4,1,8,0.00
2013-7-4,96.8,78.1,62.8,84.3,74.4,62.5,99,90,65,29.22,29.11,5,2,9,0.00
2013-7-5,93.6,76.1,65.3,85.9,74.0,65.0,99,94,75,29.24,29.12,9,2,11,2.30
2013-7-6,94.6,79.0,65.3,85.4,76.5,65.0,99,93,72,29.24,28.79,4,2,6,0.01
2013-7-7,94.8,80.7,70.3,88.0,78.8,70.0,99,95,75,29.27,29.19,5,2,8,0.00
2013-7-8,97.9,82.3,71.1,89.6,80.1,70.8,99,94,74,29.34,29.23,3,1,7,0.00
2013-7-9,99.3,85.8,74.3,88.4,82.2,74.0,99,90,69,29.31,29.17,5,1,8,0.00
2013-7-10,99.5,86.5,77.0,93.9,84.1,76.7,99,93,70,29.23,29.05,4,2,8,0.00
2013-7-11,100.0,86.3,75.2,90.4,81.8,73.9,99,87,68,29.13,29.06,7,2,11,0.00
2013-7-12,76.5,75.4,74.3,74.3,73.2,72.2,94,93,92,29.14,29.13,4,4,7,0.00
2013-7-13,95.0,83.6,67.8,77.3,73.1,67.5,99,73,57,29.16,29.03,6,2,9,9.19
2013-7-14,96.8,78.6,66.7,86.3,76.1,66.4,99,93,70,29.20,29.08,5,2,10,0.00
2013-7-15,97.5,81.2,72.7,88.2,79.3,72.2,99,95,71,29.31,29.19,8,2,13,0.11
2013-7-16,98.4,83.3,71.6,89.0,80.3,71.3,99,92,70,29.39,29.30,5,1,8,0.01
2013-7-17,102.0,86.5,70.7,89.3,81.2,70.4,99,86,63,29.43,29.26,4,1,6,0.00
2013-7-18,97.9,79.3,71.6,91.5,78.4,71.3,99,97,78,29.31,29.16,7,1,15,0.53
2013-7-19,95.7,80.9,69.8,89.9,78.9,69.5,99,94,76,29.21,29.06,4,1,8,0.01
2013-7-20,98.4,83.0,72.0,88.4,79.8,71.7,99,91,72,29.10,28.96,4,1,8,0.01
2013-7-21,97.5,84.7,74.1,89.1,81.4,73.8,99,91,66,29.10,29.00,5,2,8,0.00
2013-7-22,79.9,78.1,70.2,79.6,77.8,69.9,99,99,99,29.13,28.99,8,2,12,2.16
2013-7-23,92.1,79.6,70.5,89.9,79.0,70.2,99,98,90,29.14,28.95,8,2,11,0.58
2013-7-24,90.0,81.6,75.0,86.6,80.6,74.7,99,97,82,29.08,28.97,6,2,9,0.00
2013-7-25,89.6,77.1,66.4,77.8,72.6,66.1,99,87,65,29.19,29.07,6,3,11,0.00
2013-7-26,89.1,74.7,61.9,80.9,72.0,61.4,99,92,68,29.20,29.08,4,1,6,0.00
2013-7-27,92.3,77.2,69.4,82.4,74.8,69.1,99,93,70,29.12,29.01,4,1,7,0.05
2013-7-28,89.8,75.4,67.5,80.6,72.9,67.2,99,93,72,29.19,29.07,4,2,7,0.00
2013-7-29,79.9,69.5,66.2,76.0,68.8,65.9,99,98,82,29.27,29.17,4,1,8,0.00
2013-7-30,88.5,83.2,77.7,86.9,82.3,77.4,99,97,83,29.25,29.13,3,1,5,0.13
2013-7-31,96.6,80.5,73.9,90.2,79.6,73.6,99,97,80,29.19,29.04,4,1,8,0.61
2013-8-1,93.7,80.5,69.6,87.1,78.1,69.1,99,93,71,29.16,29.08,6,2,8,0.00
2013-8-2,96.6,80.2,64.9,85.6,76.4,64.5,99,90,66,29.16,29.07,4,1,8,0.00
2013-8-3,91.2,78.8,72.9,88.2,78.4,72.6,99,99,90,29.19,29.05,5,1,10,0.00
2013-8-4,95.7,81.5,68.7,89.2,79.3,68.4,99,94,76,29.24,29.14,4,1,6,0.00
2013-8-5,88.3,77.9,71.8,86.1,77.5,71.5,99,99,92,29.18,29.03,7,1,10,0.19
2013-8-6,93.6,81.9,74.7,91.7,81.5,74.4,99,99,91,29.08,28.99,5,2,9,0.00
2013-8-7,101.0,85.2,75.2,92.2,83.4,74.9,99,95,72,29.08,28.98,6,2,9,0.00
2013-8-8,101.0,87.1,77.2,93.9,84.5,76.9,99,93,71,29.08,28.98,3,1,8,0.00
2013-8-9,101.0,87.4,75.2,92.5,83.6,74.9,99,90,63,29.14,29.05,4,2,8,0.00
2013-8-10,96.8,83.4,74.7,89.5,81.7,74.4,99,95,76,29.24,29.13,6,1,12,0.00
2013-8-11,95.9,80.5,74.1,91.7,80.0,73.8,99,98,86,29.26,29.16,7,1,9,0.00
2013-8-13,77.0,76.4,75.9,76.5,76.1,75.4,99,99,99,29.10,29.09,4,3,6,0.00
2013-8-14,83.8,74.6,64.8,75.4,70.3,64.5,99,88,68,29.20,29.08,7,4,11,0.00
2013-8-15,88.0,71.5,58.5,72.8,66.0,58.2,99,85,57,29.21,29.11,5,2,8,0.00
2013-8-16,89.4,73.6,60.8,80.8,71.7,60.5,99,95,69,29.17,29.09,4,2,7,0.00
2013-8-17,88.9,74.7,65.3,81.2,73.3,65.0,99,96,77,29.21,29.12,6,1,9,0.25
2013-8-18,93.0,76.1,65.1,85.2,74.1,64.8,99,94,71,29.25,29.15,4,1,7,0.00
2013-8-19,95.7,78.3,65.3,85.2,75.5,64.7,99,92,69,29.22,29.11,4,1,7,0.00
2013-8-20,97.2,80.2,68.0,87.9,77.9,67.7,99,94,69,29.22,29.13,4,1,7,0.00
2013-8-21,100.0,82.5,70.2,89.6,79.6,69.9,99,92,63,29.26,29.16,3,1,6,0.00
2013-8-22,99.3,82.4,71.8,90.8,80.3,71.5,99,94,69,29.26,29.13,4,1,7,0.05
2013-8-23,100.0,83.2,68.7,88.5,79.2,68.4,99,90,62,29.20,29.10,5,1,8,0.00
2013-8-24,99.7,84.2,71.2,90.4,81.0,70.9,99,91,69,29.27,29.15,4,1,9,0.00
2013-8-25,97.2,81.1,73.4,88.9,79.5,72.9,99,95,73,29.39,29.26,4,2,8,0.00
2013-8-26,99.1,81.4,69.6,85.5,77.1,69.3,99,89,63,29.39,29.24,5,1,7,0.00
2013-8-27,98.6,80.4,64.8,82.6,75.1,64.5,99,86,59,29.29,29.16,3,1,6,0.00
2013-8-28,100.0,81.5,65.8,83.6,75.4,65.2,99,84,57,29.23,29.13,3,1,6,0.00
2013-8-29,101.0,82.8,67.6,85.8,77.5,67.2,99,86,62,29.21,29.09,4,1,7,0.00
2013-8-30,104.0,85.5,70.7,88.0,79.8,70.4,99,86,58,29.16,29.01,4,1,8,0.00
2013-8-31,103.0,86.3,71.8,87.2,80.5,71.5,99,85,60,29.06,28.93,5,2,10,0.06
2013-9-1,102.0,83.3,74.1,89.2,80.8,73.8,99,93,65,29.03,28.93,9,2,15,0.09
2013-9-2,95.9,83.3,76.5,87.0,81.3,76.2,99,94,73,29.06,28.95,6,2,14,0.00
2013-9-3,95.0,80.4,65.5,82.7,74.5,65.0,99,85,58,29.15,29.03,6,2,11,0.00
2013-9-4,94.3,77.3,62.6,81.4,72.3,62.3,99,87,63,29.24,29.13,5,2,8,0.00
2013-9-5,97.3,79.1,62.6,81.6,73.2,62.3,99,85,58,29.27,29.19,4,2,8,0.00
2013-9-6,99.5,79.0,64.9,82.4,73.0,64.7,99,85,53,29.27,29.14,4,1,6,0.00
2013-9-7,102.0,81.0,64.4,83.4,74.5,63.9,99,84,55,29.20,29.07,4,1,10,0.19
2013-9-8,104.0,82.9,67.6,86.2,76.3,67.2,99,84,55,29.11,29.00,4,1,6,0.00
2013-9-9,97.9,83.2,72.1,88.7,80.2,71.3,99,92,69,29.17,29.06,4,1,7,0.06
2013-9-10,103.0,84.1,73.0,88.0,80.3,72.7,99,90,63,29.25,29.14,5,2,8,0.00
2013-9-11,101.0,83.5,73.4,89.0,79.4,73.1,99,89,60,29.29,29.17,4,1,11,0.00
2013-9-12,101.0,82.5,70.9,86.8,77.4,70.4,99,87,59,29.19,29.05,9,2,15,0.99
2013-9-13,87.3,76.0,63.3,75.6,68.9,62.7,99,81,57,29.15,29.05,6,3,11,0.00
2013-9-14,84.0,68.8,53.4,75.8,60.9,53.1,99,79,51,29.22,28.99,6,2,9,15.80
2013-9-15,94.6,70.0,50.9,73.1,62.8,50.6,99,82,49,29.19,29.11,3,1,10,0.00
2013-9-16,95.9,75.9,57.6,78.7,68.6,57.3,99,82,45,29.23,29.14,5,2,9,0.00
2013-9-17,98.6,79.9,66.0,81.9,74.5,65.5,99,86,56,29.23,29.09,3,1,5,0.00
2013-9-18,92.5,79.1,70.2,86.2,77.4,69.9,99,95,78,29.19,29.08,5,2,10,0.00
2013-9-19,99.3,81.1,69.1,86.1,77.0,68.6,99,89,63,29.18,29.02,4,2,9,0.00
2013-9-20,79.3,73.9,68.7,79.0,73.6,68.4,99,99,99,29.07,28.90,5,1,8,1.58
2013-9-21,81.7,69.8,56.3,71.4,65.9,56.0,99,89,62,29.00,28.88,8,4,13,0.19
2013-9-22,83.8,65.8,52.2,68.8,60.7,51.9,99,86,59,29.03,28.93,6,2,9,0.11
2013-9-23,91.9,69.7,52.2,76.0,65.0,51.9,99,88,60,29.04,28.93,4,1,8,0.00
2013-9-24,81.7,71.5,63.0,81.4,71.2,62.7,99,99,99,28.98,28.87,4,1,6,0.08
2013-9-25,90.5,75.9,66.4,84.1,73.6,66.1,99,93,69,28.92,28.84,4,1,6,0.00
2013-9-26,94.5,76.1,62.8,84.9,73.0,62.5,99,92,65,29.07,28.90,5,1,7,0.00
2013-9-27,94.1,74.6,61.0,82.3,70.9,60.7,99,90,64,29.16,29.06,4,1,8,0.00
2013-9-28,90.0,73.5,62.4,76.5,69.2,62.1,99,88,62,29.21,29.09,5,2,8,0.00
2013-9-29,70.9,67.3,64.4,70.6,67.0,64.1,99,99,99,29.13,29.03,3,2,5,0.08
2013-9-30,80.8,70.1,66.0,80.3,69.8,65.7,99,99,99,29.06,28.99,3,1,7,0.06
2013-10-1,90.0,74.9,66.7,85.7,74.2,66.4,99,98,85,29.15,29.03,4,1,7,0.00
2013-10-2,90.5,76.0,69.3,82.9,74.5,69.0,99,95,78,29.19,29.09,3,1,6,0.00
2013-10-3,93.2,77.1,64.8,85.1,75.2,64.5,99,95,74,29.14,29.02,4,2,6,0.00
2013-10-4,90.7,76.6,68.5,86.3,76.0,68.2,99,98,85,29.15,29.05,4,2,6,0.00
2013-10-5,92.7,80.2,71.8,85.5,78.5,71.1,99,95,77,29.11,28.94,4,2,8,0.17
2013-10-6,75.4,63.9,55.4,74.0,60.1,54.3,99,89,64,29.08,28.95,6,2,10,0.81
2013-10-7,75.2,58.3,45.3,63.8,55.0,45.1,99,90,65,29.19,29.05,6,2,9,0.00
2013-10-8,81.0,61.8,49.1,66.2,57.8,48.8,99,89,61,29.23,29.12,7,2,12,0.00
2013-10-9,84.0,66.1,53.8,77.5,65.1,53.5,99,97,80,29.23,29.13,4,1,6,0.00
2013-10-10,88.3,68.6,57.0,78.1,65.8,56.6,99,92,65,29.24,29.08,3,1,5,0.00
2013-10-11,91.2,69.2,55.2,77.7,65.9,54.8,99,91,62,29.14,29.03,4,1,8,0.00
2013-10-12,81.7,66.8,57.9,80.6,66.5,57.6,99,99,96,29.21,29.06,8,1,14,0.37
2013-10-13,83.5,70.0,61.0,79.0,68.7,60.7,99,96,79,29.34,29.20,5,2,8,0.01
2013-10-14,88.5,70.4,56.3,78.9,67.4,56.0,99,92,66,29.30,29.13,5,1,8,0.00
2013-10-15,75.4,70.1,67.6,75.1,69.8,67.2,99,99,98,29.14,29.03,4,2,8,0.35
2013-10-16,68.0,62.1,57.6,67.7,61.8,57.3,99,99,99,29.10,29.01,7,2,12,0.83
2013-10-17,72.0,59.6,47.1,66.4,57.7,46.9,99,94,71,29.11,29.03,4,1,8,0.01
2013-10-18,77.9,58.6,43.3,66.8,55.1,43.1,99,90,60,29.17,29.02,3,1,6,0.00
2013-10-19,63.5,53.1,39.9,57.8,51.8,39.7,99,96,73,29.17,29.00,8,2,13,0.02
2013-10-20,75.6,52.1,36.9,58.5,47.6,36.6,99,87,52,29.20,29.06,3,1,7,0.01
2013-10-21,78.6,57.9,41.2,62.0,53.2,40.9,99,87,54,29.16,29.03,6,1,9,0.00
2013-10-22,71.4,57.8,50.7,61.3,54.4,50.3,99,90,56,29.16,28.98,5,2,8,0.01
2013-10-23,65.3,51.8,41.0,54.0,47.2,40.7,99,86,57,29.25,29.03,7,2,11,0.00
2013-10-24,69.3,52.9,39.6,58.0,48.2,39.0,99,86,64,29.45,29.18,8,2,13,0.00
2013-10-25,62.1,44.0,33.1,42.2,37.7,32.8,99,82,47,29.60,29.40,6,2,11,0.00
2013-10-26,68.7,50.8,34.2,56.0,46.1,33.9,99,86,57,29.41,29.17,5,1,10,0.00
2013-10-27,72.5,59.6,51.8,68.7,59.0,51.5,99,98,84,29.19,29.10,3,1,6,0.01
2013-10-28,77.0,62.7,56.3,71.3,61.7,56.0,99,97,78,29.30,29.14,3,1,5,0.00
2013-10-29,79.5,65.0,52.3,78.5,64.7,52.1,99,99,95,29.32,29.18,4,1,8,0.00
2013-10-30,78.1,68.9,59.5,77.8,68.5,59.3,99,99,95,29.27,29.03,5,2,10,0.00
2013-10-31,71.1,68.1,62.4,70.8,67.6,60.8,99,98,88,29.04,28.66,10,4,19,2.03
2013-11-1,76.8,60.2,47.1,64.1,56.4,46.9,99,89,57,28.98,28.84,5,1,10,0.00
2013-11-2,64.4,53.0,40.3,54.4,49.6,40.0,99,89,67,29.29,28.97,8,2,13,0.00
2013-11-3,69.8,48.0,34.0,56.2,43.8,33.7,99,88,53,29.40,29.23,5,1,8,0.00
2013-11-4,69.1,54.5,40.8,57.3,51.5,40.6,99,91,63,29.37,29.27,6,2,11,0.00
2013-11-5,75.9,62.0,51.4,65.0,57.9,51.2,99,87,69,29.38,29.22,7,3,16,0.00
2013-11-6,63.1,57.9,46.4,62.9,57.2,46.1,99,97,93,29.33,29.11,9,3,15,0.01
2013-11-7,61.5,46.6,35.4,46.9,41.9,35.2,99,86,54,29.49,29.32,9,3,15,0.00
2013-11-8,73.9,47.9,30.9,53.6,43.2,30.7,99,87,47,29.47,29.29,4,1,8,0.00
2013-11-9,62.8,50.7,40.5,53.2,47.7,40.2,99,91,63,29.38,29.27,4,1,7,0.00
2013-11-10,74.7,54.0,41.0,60.7,49.8,40.6,99,88,54,29.43,29.34,6,1,8,0.00
2013-11-11,76.3,54.0,36.7,58.2,48.5,36.4,99,85,54,29.39,29.23,4,1,7,0.00
2013-11-12,55.2,41.7,30.7,54.9,37.2,27.2,99,85,58,29.74,29.29,13,7,20,0.00
2013-11-13,55.6,35.7,25.2,34.6,28.9,24.9,99,80,43,29.79,29.52,5,2,9,0.00
2013-11-14,64.6,39.8,22.1,37.9,30.7,21.9,99,76,36,29.53,29.24,5,1,8,0.00
2013-11-15,67.1,50.9,36.7,62.7,49.5,34.3,99,95,82,29.25,29.09,4,1,8,0.01
2013-11-16,71.1,62.1,53.2,70.8,61.8,53.0,99,99,99,29.13,28.96,7,3,15,0.04
2013-11-17,77.0,70.3,62.1,76.7,68.2,48.0,99,94,57,29.06,28.80,7,4,15,0.22
2013-11-18,68.2,54.9,41.0,51.3,44.2,35.3,99,70,45,29.33,29.06,7,3,13,0.00
2013-11-19,55.2,44.8,33.1,39.5,35.4,32.8,99,72,49,29.39,29.24,6,2,11,0.00
2013-11-20,70.0,48.1,30.4,52.1,42.3,30.1,99,83,53,29.27,29.14,7,2,11,0.00
2013-11-21,70.9,59.2,50.5,66.4,58.2,49.2,99,97,85,29.29,29.18,8,3,12,0.34
2013-11-22,60.8,53.9,43.7,60.5,53.6,43.4,99,99,99,29.47,29.24,8,4,15,0.69
2013-11-23,48.4,41.6,29.8,44.5,37.1,23.6,99,85,56,29.64,29.43,13,7,17,0.01
2013-11-24,41.7,30.9,22.8,26.6,23.1,20.6,92,74,53,29.73,29.50,11,5,17,0.00
2013-11-25,36.7,34.8,32.0,36.2,31.3,23.3,99,88,69,29.52,29.20,3,1,6,0.25
2013-11-26,41.4,37.3,35.1,41.1,36.7,32.3,99,98,88,29.21,29.01,10,5,15,0.11
2013-11-27,39.2,29.0,18.1,32.1,23.1,17.9,99,79,59,29.48,29.21,12,5,17,0.00
2013-11-28,50.2,30.8,16.7,32.6,25.7,16.5,99,84,51,29.57,29.46,4,1,8,0.00
2013-11-29,65.5,39.0,23.5,46.3,34.0,23.3,99,86,50,29.64,29.51,3,1,7,0.00
2013-11-30,61.5,40.0,24.3,43.0,34.5,24.0,99,84,48,29.52,29.29,5,1,9,0.00
2013-12-1,63.0,50.8,35.6,54.0,45.5,35.3,99,82,72,29.30,29.01,5,2,8,0.00
2013-12-2,63.5,55.2,46.0,63.0,54.6,45.6,99,98,87,29.01,28.79,3,1,4,0.00
2013-12-3,61.3,55.0,45.9,61.1,54.8,45.6,99,99,99,28.84,28.75,4,1,7,0.00
2013-12-4,78.3,68.3,59.7,74.7,67.7,59.4,99,98,89,28.91,28.76,11,4,18,0.00
2013-12-5,70.5,50.2,34.9,70.2,49.9,34.6,99,99,99,29.22,28.90,9,5,14,0.65
2013-12-6,34.9,31.6,26.1,34.6,31.3,25.8,99,99,99,29.52,29.14,8,3,11,0.83
2013-12-7,29.7,26.2,22.6,29.4,26.0,22.4,99,99,99,29.63,29.38,0,0,0,0.00
2013-12-8,35.2,32.9,29.8,34.8,32.7,29.4,99,99,99,29.42,29.14,3,0,6,0.04
2013-12-9,34.7,32.6,31.3,34.5,32.3,30.7,99,99,99,29.37,29.23,6,3,11,0.05
2013-12-10,44.4,31.1,21.9,37.6,29.2,21.7,99,93,72,29.52,29.28,4,0,9,0.01
2013-12-11,49.6,33.4,18.7,42.8,31.0,18.5,99,92,65,29.66,29.46,5,2,9,0.00
2013-12-12,55.2,31.8,17.6,33.5,25.6,17.4,99,82,42,29.70,29.47,6,1,8,0.00
2013-12-13,51.6,35.3,22.1,39.7,30.3,21.9,99,85,52,29.47,28.98,8,2,13,0.50
2013-12-14,45.7,41.2,36.0,45.2,40.9,35.7,99,99,99,29.23,28.87,8,4,13,0.56
2013-12-15,44.2,34.6,29.8,39.1,33.8,29.6,99,97,80,29.37,29.21,8,3,12,0.00
2013-12-16,62.1,44.0,29.7,49.8,40.3,29.4,99,88,64,29.32,29.20,8,3,12,0.00
2013-12-17,63.9,47.0,29.5,51.1,42.2,29.2,99,85,61,29.38,29.23,6,2,8,0.00
2013-12-18,65.8,45.0,26.8,46.2,38.6,26.5,99,81,49,29.44,29.20,6,2,10,0.00
2013-12-19,61.9,54.1,42.1,60.3,52.8,41.8,99,95,86,29.24,29.03,7,4,15,0.00
2013-12-20,69.3,64.5,59.7,69.0,64.2,59.4,99,99,99,29.07,28.88,8,4,14,0.11
2013-12-21,76.3,67.6,55.8,75.4,67.3,55.5,99,99,96,28.89,28.54,12,6,21,1.02
2013-12-22,57.4,50.1,37.8,56.9,49.9,37.5,99,99,99,29.32,28.77,7,3,11,0.02
2013-12-23,41.0,34.0,23.7,37.5,32.4,23.5,99,94,75,29.59,29.31,8,4,13,0.00
2013-12-24,41.5,28.6,21.0,28.2,24.5,20.6,99,86,56,29.69,29.49,6,2,10,0.00
2013-12-25,57.4,35.0,19.2,40.1,29.4,19.0,99,83,50,29.52,29.38,5,1,8,0.00
2013-12-26,54.9,35.7,25.2,39.8,31.6,24.7,99,88,52,29.52,29.42,5,1,8,0.00
2013-12-27,65.1,38.6,23.0,45.4,33.0,22.8,99,84,45,29.56,29.44,3,1,6,0.00
2013-12-28,48.7,39.4,29.5,46.2,38.6,29.2,99,97,86,29.44,29.05,4,1,6,0.08
2013-12-29,58.1,45.6,35.6,53.7,44.4,35.3,99,96,80,29.28,29.03,10,3,16,0.08
2013-12-30,35.6,31.9,28.8,35.2,31.6,28.3,99,99,97,29.44,29.26,7,3,12,0.00
2013-12-31,57.0,33.6,19.8,42.2,30.0,19.5,99,89,56,29.55,29.39,4,1,7,0.00
2014-1-1,62.4,41.5,21.7,48.8,37.6,21.5,99,88,57,29.39,29.02,5,2,10,0.00
2014-1-2,50.4,35.4,22.8,49.9,32.6,18.5,99,90,76,29.53,28.96,13,6,19,0.19